Time;durP1;ratioP1;P1;durP2;ratioP2;P2;SDS_P1;SDS_P2;PMS_P1;PMS_P2;Temp;Humidity;BMP_temperature;BMP_pressure;BME280_temperature;BME280_humidity;BME280_pressure;Samples;Min_cycle;Max_cycle;Signal;HPM_P1;HPM_P2
2022/12/25 00:00:00;;;;;;;9.88;2.35;;;;;;;;;;5048487;28;20475;-73
2022/12/25 00:02:46;;;;;;;7.40;2.35;;;;;;;;;;5024331;28;20047;-71
2022/12/25 00:05:31;;;;;;;5.93;2.67;;;;;;;;;;5025273;28;20033;-72
2022/12/25 00:08:16;;;;;;;3.47;2.00;;;;;;;;;;5034442;28;20040;-71
2022/12/25 00:11:06;;;;;;;4.82;2.17;;;;;;;;;;5046989;28;20430;-72
2022/12/25 00:13:51;;;;;;;5.97;2.35;;;;;;;;;;5043418;28;20429;-81
2022/12/25 00:16:36;;;;;;;5.97;2.72;;;;;;;;;;5038024;28;20037;-68
2022/12/25 00:19:21;;;;;;;6.22;2.60;;;;;;;;;;5053197;28;20042;-67
2022/12/25 00:22:07;;;;;;;4.63;2.03;;;;;;;;;;5045410;28;20028;-67
2022/12/25 00:24:52;;;;;;;8.20;2.53;;;;;;;;;;5047307;28;20028;-68
2022/12/25 00:27:37;;;;;;;4.22;2.55;;;;;;;;;;5038082;28;20499;-69
2022/12/25 00:30:22;;;;;;;4.20;2.33;;;;;;;;;;5049597;28;20254;-68
2022/12/25 00:33:07;;;;;;;7.55;2.22;;;;;;;;;;5046121;28;20352;-77
2022/12/25 00:35:59;;;;;;;8.65;3.85;;;;;;;;;;5043255;28;20061;-67
2022/12/25 00:38:45;;;;;;;5.15;1.80;;;;;;;;;;5036313;28;20097;-67
2022/12/25 00:44:34;;;;;;;4.88;2.47;;;;;;;;;;5049231;28;20029;-68
2022/12/25 00:47:19;;;;;;;7.03;2.03;;;;;;;;;;5049510;28;20024;-67
2022/12/25 00:50:05;;;;;;;8.18;2.78;;;;;;;;;;5047694;28;20131;-68
2022/12/25 00:52:50;;;;;;;3.70;1.85;;;;;;;;;;5039467;28;20045;-68
2022/12/25 00:55:36;;;;;;;2.72;1.73;;;;;;;;;;5049578;28;20037;-66
2022/12/25 00:58:21;;;;;;;3.97;2.08;;;;;;;;;;5044746;28;20041;-67
2022/12/25 01:01:08;;;;;;;2.95;1.88;;;;;;;;;;5056870;28;20063;-67
2022/12/25 01:03:54;;;;;;;3.50;1.67;;;;;;;;;;5061414;28;20044;-67
2022/12/25 01:06:39;;;;;;;3.00;1.75;;;;;;;;;;5038632;28;20132;-68
2022/12/25 01:12:29;;;;;;;3.28;1.58;;;;;;;;;;5053322;28;20037;-74
2022/12/25 01:15:14;;;;;;;4.32;1.73;;;;;;;;;;5051801;28;20035;-73
2022/12/25 01:17:59;;;;;;;3.10;1.70;;;;;;;;;;5035769;28;20041;-73
2022/12/25 01:20:44;;;;;;;8.82;2.88;;;;;;;;;;5056353;28;20127;-74
2022/12/25 01:23:29;;;;;;;3.00;2.08;;;;;;;;;;5047257;28;20503;-74
2022/12/25 01:26:15;;;;;;;4.90;2.00;;;;;;;;;;5060758;28;20122;-72
2022/12/25 01:29:01;;;;;;;6.93;3.20;;;;;;;;;;5041968;28;20483;-70
2022/12/25 01:31:46;;;;;;;3.13;2.00;;;;;;;;;;5040867;28;20042;-76
2022/12/25 01:34:31;;;;;;;6.68;3.47;;;;;;;;;;5062379;28;20059;-77
2022/12/25 01:37:17;;;;;;;4.28;2.20;;;;;;;;;;5054271;28;20063;-75
2022/12/25 01:40:03;;;;;;;4.63;2.35;;;;;;;;;;5054496;28;20609;-76
2022/12/25 01:42:48;;;;;;;2.90;2.03;;;;;;;;;;5053386;28;20082;-77
2022/12/25 01:45:33;;;;;;;6.82;2.22;;;;;;;;;;5055119;28;20108;-72
2022/12/25 01:48:20;;;;;;;5.00;2.75;;;;;;;;;;5055265;28;20032;-70
2022/12/25 01:51:09;;;;;;;4.38;2.00;;;;;;;;;;5058728;28;20036;-68
2022/12/25 01:53:56;;;;;;;4.90;2.67;;;;;;;;;;5055422;28;20044;-70
2022/12/25 01:56:42;;;;;;;3.95;1.95;;;;;;;;;;5055118;28;20028;-69
2022/12/25 01:59:28;;;;;;;3.50;1.85;;;;;;;;;;5052630;28;20041;-69
2022/12/25 02:02:13;;;;;;;3.88;2.15;;;;;;;;;;5054825;28;20067;-71
2022/12/25 02:04:58;;;;;;;3.80;2.10;;;;;;;;;;5053071;28;20441;-67
2022/12/25 02:07:45;;;;;;;5.57;2.00;;;;;;;;;;5060944;28;20403;-80
2022/12/25 02:10:30;;;;;;;5.25;2.35;;;;;;;;;;5040820;28;20502;-82
2022/12/25 02:13:17;;;;;;;4.75;2.22;;;;;;;;;;5049774;28;20043;-79
2022/12/25 02:16:06;;;;;;;6.05;2.38;;;;;;;;;;5056901;28;20113;-79
2022/12/25 02:18:54;;;;;;;7.55;2.45;;;;;;;;;;5053542;28;20287;-80
2022/12/25 02:21:45;;;;;;;5.53;2.10;;;;;;;;;;5063526;28;20033;-68
2022/12/25 02:24:46;;;;;;;5.68;1.92;;;;;;;;;;5060839;28;20068;-70
2022/12/25 02:27:49;;;;;;;6.47;2.53;;;;;;;;;;5047499;28;20068;-69
2022/12/25 02:30:39;;;;;;;5.50;2.20;;;;;;;;;;5054129;28;20107;-71
2022/12/25 02:36:37;;;;;;;3.88;2.88;;;;;;;;;;5052539;28;20044;-69
2022/12/25 03:07:35;;;;;;;2.45;2.05;;;;;;;;;;5048371;28;20032;-69
2022/12/25 03:13:29;;;;;;;4.53;2.20;;;;;;;;;;5049531;28;20744;-69
2022/12/25 03:28:37;;;;;;;4.30;2.38;;;;;;;;;;5052338;28;20043;-76
2022/12/25 03:31:25;;;;;;;5.10;2.33;;;;;;;;;;5059205;28;20039;-77
2022/12/25 04:36:45;;;;;;;7.15;2.63;;;;;;;;;;5056286;28;20337;-79
2022/12/25 04:39:30;;;;;;;5.78;3.03;;;;;;;;;;5056565;28;20043;-79
2022/12/25 04:42:15;;;;;;;9.07;2.70;;;;;;;;;;5060388;28;20032;-77
2022/12/25 04:45:01;;;;;;;7.97;3.10;;;;;;;;;;5057023;28;20040;-79
2022/12/25 04:47:46;;;;;;;5.65;3.40;;;;;;;;;;5062322;28;20036;-79
2022/12/25 04:50:31;;;;;;;5.05;3.42;;;;;;;;;;5056052;28;20125;-72
2022/12/25 04:53:17;;;;;;;8.82;3.22;;;;;;;;;;5061365;28;20089;-73
2022/12/25 04:56:02;;;;;;;4.45;2.40;;;;;;;;;;5052480;28;20113;-74
2022/12/25 04:58:47;;;;;;;5.60;3.08;;;;;;;;;;5051561;28;20089;-73
2022/12/25 05:01:32;;;;;;;6.22;3.90;;;;;;;;;;5055505;28;20036;-74
2022/12/25 05:04:18;;;;;;;10.10;3.30;;;;;;;;;;5055634;28;20475;-74
2022/12/25 05:07:03;;;;;;;4.88;2.88;;;;;;;;;;5055861;28;20033;-73
2022/12/25 05:09:48;;;;;;;4.25;2.83;;;;;;;;;;5049770;28;20036;-79
2022/12/25 05:12:33;;;;;;;6.22;3.35;;;;;;;;;;5065870;28;20036;-79
2022/12/25 05:15:19;;;;;;;4.28;2.70;;;;;;;;;;5044970;28;20052;-79
2022/12/25 05:18:04;;;;;;;6.13;3.28;;;;;;;;;;5060199;28;20033;-79
2022/12/25 05:20:53;;;;;;;8.35;4.18;;;;;;;;;;5048896;28;20070;-79
2022/12/25 05:23:47;;;;;;;6.45;3.97;;;;;;;;;;5064040;28;20036;-78
2022/12/25 05:26:32;;;;;;;7.30;3.85;;;;;;;;;;5055195;28;20033;-71
2022/12/25 05:29:17;;;;;;;6.40;3.25;;;;;;;;;;5055764;28;20033;-68
2022/12/25 05:32:02;;;;;;;9.25;4.82;;;;;;;;;;5060549;28;20039;-68
2022/12/25 05:34:48;;;;;;;6.90;3.72;;;;;;;;;;5055642;28;20492;-69
2022/12/25 05:37:34;;;;;;;6.47;3.95;;;;;;;;;;5055137;28;20062;-69
2022/12/25 05:40:19;;;;;;;6.47;3.70;;;;;;;;;;5055569;28;21576;-69
2022/12/25 05:43:04;;;;;;;6.72;4.50;;;;;;;;;;5055835;28;20177;-68
2022/12/25 05:45:50;;;;;;;7.38;4.18;;;;;;;;;;5047090;28;20032;-67
2022/12/25 05:48:36;;;;;;;10.05;4.32;;;;;;;;;;5055646;28;20148;-73
2022/12/25 05:51:21;;;;;;;7.82;3.88;;;;;;;;;;5063342;28;20044;-72
2022/12/25 05:54:06;;;;;;;6.28;4.03;;;;;;;;;;5054732;28;20060;-71
2022/12/25 05:56:51;;;;;;;5.95;3.85;;;;;;;;;;5054602;28;20039;-73
2022/12/25 05:59:36;;;;;;;9.80;3.72;;;;;;;;;;5043865;28;20529;-72
2022/12/25 06:02:22;;;;;;;5.30;4.00;;;;;;;;;;5054569;28;20182;-69
2022/12/25 06:05:08;;;;;;;7.18;4.28;;;;;;;;;;5055165;28;20076;-72
2022/12/25 06:07:53;;;;;;;8.57;3.90;;;;;;;;;;5055521;28;20203;-67
2022/12/25 06:10:39;;;;;;;7.45;3.78;;;;;;;;;;5059124;28;20044;-65
2022/12/25 06:13:24;;;;;;;7.05;4.00;;;;;;;;;;5053038;28;20056;-68
2022/12/25 06:16:10;;;;;;;6.45;4.05;;;;;;;;;;5054421;28;20066;-68
2022/12/25 06:18:55;;;;;;;12.13;5.35;;;;;;;;;;5058431;28;20098;-66
2022/12/25 06:21:40;;;;;;;6.10;3.58;;;;;;;;;;5057525;28;20197;-66
2022/12/25 06:24:25;;;;;;;6.80;3.95;;;;;;;;;;5065507;28;20090;-66
2022/12/25 06:27:11;;;;;;;8.90;5.43;;;;;;;;;;5052683;28;20055;-67
2022/12/25 06:29:56;;;;;;;6.93;4.05;;;;;;;;;;5054780;28;20025;-66
2022/12/25 06:32:41;;;;;;;6.75;4.18;;;;;;;;;;5054503;28;20032;-67
2022/12/25 06:35:26;;;;;;;6.60;3.92;;;;;;;;;;5054388;28;20028;-66
2022/12/25 06:38:12;;;;;;;7.10;4.10;;;;;;;;;;5053421;28;20044;-68
2022/12/25 06:41:01;;;;;;;5.47;3.63;;;;;;;;;;5054213;28;20040;-71
2022/12/25 06:43:46;;;;;;;;;;;;;;;;;;5064198;28;20036;-68
2022/12/25 06:46:31;;;;;;;6.15;3.60;;;;;;;;;;5053566;28;20636;-68
2022/12/25 06:49:17;;;;;;;3.97;2.97;;;;;;;;;;5053177;28;20043;-68
2022/12/25 06:52:02;;;;;;;17.83;4.43;;;;;;;;;;5053954;28;20380;-67
2022/12/25 06:54:47;;;;;;;5.72;3.95;;;;;;;;;;5061472;28;20035;-67
2022/12/25 06:57:33;;;;;;;6.43;3.30;;;;;;;;;;5042906;28;20024;-69
2022/12/25 07:00:18;;;;;;;12.32;4.00;;;;;;;;;;5058366;28;20687;-75
2022/12/25 07:03:03;;;;;;;6.65;3.75;;;;;;;;;;5059137;28;20475;-68
2022/12/25 07:05:48;;;;;;;4.95;3.58;;;;;;;;;;5051360;28;20062;-68
2022/12/25 07:08:33;;;;;;;5.20;2.97;;;;;;;;;;5058263;28;20028;-67
2022/12/25 07:11:19;;;;;;;12.90;3.83;;;;;;;;;;5053610;28;20388;-67
2022/12/25 07:14:04;;;;;;;6.03;3.78;;;;;;;;;;5046223;28;20522;-68
2022/12/25 07:16:49;;;;;;;7.93;3.70;;;;;;;;;;5045505;28;20035;-67
2022/12/25 07:19:35;;;;;;;4.65;3.13;;;;;;;;;;5052937;28;20036;-67
2022/12/25 07:22:20;;;;;;;5.25;3.25;;;;;;;;;;5053142;28;20037;-70
2022/12/25 07:25:05;;;;;;;6.28;3.83;;;;;;;;;;5038358;28;20044;-69
2022/12/25 07:27:50;;;;;;;5.22;3.42;;;;;;;;;;5060317;28;20111;-68
2022/12/25 07:30:36;;;;;;;5.55;2.90;;;;;;;;;;5042689;28;20034;-69
2022/12/25 07:33:21;;;;;;;4.82;3.17;;;;;;;;;;5059008;28;20067;-68
2022/12/25 07:36:07;;;;;;;6.43;3.47;;;;;;;;;;5053523;28;20039;-70
2022/12/25 07:38:52;;;;;;;8.77;3.47;;;;;;;;;;5052698;28;20386;-72
2022/12/25 07:41:38;;;;;;;6.25;3.35;;;;;;;;;;5053313;28;20031;-72
2022/12/25 07:44:24;;;;;;;5.45;2.75;;;;;;;;;;5053548;28;20056;-73
2022/12/25 07:47:09;;;;;;;4.93;2.95;;;;;;;;;;5053114;28;20032;-72
2022/12/25 07:49:54;;;;;;;7.68;3.45;;;;;;;;;;5053235;28;20115;-72
2022/12/25 07:52:40;;;;;;;5.05;3.17;;;;;;;;;;5050216;28;20178;-81
2022/12/25 07:55:25;;;;;;;4.18;2.60;;;;;;;;;;5053482;28;20120;-71
2022/12/25 07:58:10;;;;;;;5.97;2.70;;;;;;;;;;5058260;28;20032;-72
2022/12/25 08:01:00;;;;;;;5.30;3.05;;;;;;;;;;5059716;28;20028;-71
2022/12/25 08:03:50;;;;;;;6.78;3.42;;;;;;;;;;5052977;28;20033;-74
2022/12/25 08:06:35;;;;;;;5.00;2.65;;;;;;;;;;5052813;28;20025;-72
2022/12/25 08:09:20;;;;;;;6.50;3.33;;;;;;;;;;5062089;28;20063;-71
2022/12/25 08:12:06;;;;;;;2.25;1.67;;;;;;;;;;5058393;28;20035;-71
2022/12/25 08:14:51;;;;;;;3.20;2.28;;;;;;;;;;5056890;28;20028;-73
2022/12/25 08:17:36;;;;;;;6.97;4.40;;;;;;;;;;5056539;28;20032;-74
2022/12/25 08:20:21;;;;;;;4.05;2.83;;;;;;;;;;5056951;28;20063;-72
2022/12/25 08:23:07;;;;;;;5.78;2.50;;;;;;;;;;5055919;28;20032;-72
2022/12/25 08:25:52;;;;;;;4.93;2.55;;;;;;;;;;5056742;28;20032;-72
2022/12/25 08:28:37;;;;;;;4.28;2.60;;;;;;;;;;5058273;28;20059;-72
2022/12/25 08:31:24;;;;;;;3.58;2.55;;;;;;;;;;5064458;28;20032;-72
2022/12/25 08:34:09;;;;;;;4.40;2.10;;;;;;;;;;5056793;28;20060;-70
2022/12/25 08:36:54;;;;;;;3.63;2.30;;;;;;;;;;5056408;28;20086;-69
2022/12/25 08:39:40;;;;;;;7.55;2.83;;;;;;;;;;5056425;28;20113;-70
2022/12/25 08:42:25;;;;;;;6.30;3.03;;;;;;;;;;5049804;28;20064;-70
2022/12/25 08:45:10;;;;;;;3.47;2.47;;;;;;;;;;5056003;28;20726;-70
2022/12/25 08:47:56;;;;;;;5.57;3.28;;;;;;;;;;5047001;28;20033;-72
2022/12/25 08:50:45;;;;;;;5.72;2.80;;;;;;;;;;5056242;28;20540;-70
2022/12/25 08:53:30;;;;;;;2.30;2.00;;;;;;;;;;5045911;28;20036;-73
2022/12/25 08:56:17;;;;;;;4.18;2.22;;;;;;;;;;5043162;28;20055;-73
2022/12/25 08:59:02;;;;;;;5.43;3.35;;;;;;;;;;5062376;28;20523;-74
2022/12/25 09:01:47;;;;;;;4.07;2.50;;;;;;;;;;5059653;28;20032;-75
2022/12/25 09:04:32;;;;;;;4.95;2.30;;;;;;;;;;5057463;28;20078;-74
2022/12/25 09:07:17;;;;;;;5.35;3.00;;;;;;;;;;5055646;28;20391;-68
2022/12/25 09:10:03;;;;;;;6.15;2.70;;;;;;;;;;5060750;28;20119;-74
2022/12/25 09:12:48;;;;;;;7.60;3.13;;;;;;;;;;5053992;28;20071;-72
2022/12/25 09:15:33;;;;;;;6.40;2.88;;;;;;;;;;5065738;28;20036;-74
2022/12/25 09:18:18;;;;;;;7.43;2.63;;;;;;;;;;5054783;28;20109;-73
2022/12/25 09:21:05;;;;;;;5.25;2.67;;;;;;;;;;5050934;28;20125;-75
2022/12/25 09:23:50;;;;;;;4.63;2.38;;;;;;;;;;5060585;28;20031;-74
2022/12/25 09:26:35;;;;;;;4.88;3.00;;;;;;;;;;5055556;28;20028;-76
2022/12/25 09:29:21;;;;;;;6.15;3.35;;;;;;;;;;5064918;28;20143;-72
2022/12/25 09:32:07;;;;;;;6.88;2.67;;;;;;;;;;5055634;28;20134;-71
2022/12/25 09:34:52;;;;;;;8.43;3.17;;;;;;;;;;5070140;28;20027;-72
2022/12/25 09:37:37;;;;;;;4.63;2.80;;;;;;;;;;5055363;28;20036;-71
2022/12/25 09:40:24;;;;;;;6.53;3.05;;;;;;;;;;5058198;28;20111;-74
2022/12/25 09:43:11;;;;;;;4.95;2.55;;;;;;;;;;5055054;28;20037;-68
2022/12/25 09:45:58;;;;;;;5.68;3.08;;;;;;;;;;5055314;28;20032;-69
2022/12/25 09:48:47;;;;;;;5.00;2.83;;;;;;;;;;5054806;28;20036;-69
2022/12/25 09:51:34;;;;;;;9.15;2.40;;;;;;;;;;5055220;28;20314;-67
2022/12/25 09:54:31;;;;;;;5.05;2.60;;;;;;;;;;5059210;28;20062;-68
2022/12/25 09:57:16;;;;;;;4.00;2.30;;;;;;;;;;5055301;28;20036;-67
2022/12/25 10:00:02;;;;;;;8.40;3.28;;;;;;;;;;5055079;28;20038;-67
2022/12/25 10:02:47;;;;;;;6.40;2.10;;;;;;;;;;5051908;28;20047;-73
2022/12/25 10:05:41;;;;;;;6.30;3.60;;;;;;;;;;5058405;28;20032;-79
2022/12/25 10:08:41;;;;;;;7.18;3.63;;;;;;;;;;5059173;28;20121;-81
2022/12/25 10:11:38;;;;;;;6.88;2.97;;;;;;;;;;5049838;28;20040;-81
2022/12/25 10:14:38;;;;;;;5.93;2.95;;;;;;;;;;5052538;28;20558;-81
2022/12/25 10:17:24;;;;;;;5.90;2.38;;;;;;;;;;5055072;28;20041;-78
2022/12/25 10:20:28;;;;;;;5.38;2.38;;;;;;;;;;5076303;28;20032;-70
2022/12/25 10:23:16;;;;;;;4.90;2.40;;;;;;;;;;5062555;28;20074;-79
2022/12/25 10:26:03;;;;;;;6.22;2.50;;;;;;;;;;5056613;28;20039;-78
2022/12/25 10:28:52;;;;;;;3.97;2.03;;;;;;;;;;5044913;28;20052;-78
2022/12/25 10:31:37;;;;;;;;;;;;;;;;;;5058243;28;20492;-80
2022/12/25 10:34:23;;;;;;;4.68;2.42;;;;;;;;;;5055995;28;19913;-78
2022/12/25 10:37:09;;;;;;;3.55;1.95;;;;;;;;;;5055161;28;20040;-78
2022/12/25 10:39:56;;;;;;;4.72;2.17;;;;;;;;;;5059682;28;20028;-68
2022/12/25 10:42:42;;;;;;;4.07;2.10;;;;;;;;;;5054619;28;20101;-77
2022/12/25 10:45:27;;;;;;;4.35;2.08;;;;;;;;;;5064189;28;20075;-81
2022/12/25 10:48:31;;;;;;;4.00;1.98;;;;;;;;;;5054153;28;20417;-77
2022/12/25 10:51:30;;;;;;;4.07;1.92;;;;;;;;;;5051267;28;20028;-77
2022/12/25 10:54:18;;;;;;;6.10;2.42;;;;;;;;;;5049789;28;20372;-78
2022/12/25 10:57:03;;;;;;;7.60;3.65;;;;;;;;;;5055216;28;20033;-68
2022/12/25 10:59:56;;;;;;;3.83;2.22;;;;;;;;;;5061606;28;20039;-65
2022/12/25 11:02:41;;;;;;;4.53;2.30;;;;;;;;;;5053391;28;20041;-68
2022/12/25 11:05:33;;;;;;;5.20;2.10;;;;;;;;;;5066587;28;20040;-68
2022/12/25 11:08:20;;;;;;;4.82;2.08;;;;;;;;;;5051190;28;20041;-65
2022/12/25 11:11:06;;;;;;;3.20;1.77;;;;;;;;;;5074508;28;20070;-66
2022/12/25 11:14:01;;;;;;;7.45;2.58;;;;;;;;;;5050387;28;20482;-68
2022/12/25 11:16:47;;;;;;;5.90;2.45;;;;;;;;;;5053408;28;20067;-68
2022/12/25 11:19:32;;;;;;;6.32;3.13;;;;;;;;;;5053315;28;20083;-78
2022/12/25 11:22:18;;;;;;;3.47;2.13;;;;;;;;;;5053696;28;20127;-78
2022/12/25 11:25:13;;;;;;;7.78;2.60;;;;;;;;;;5057975;28;20028;-79
2022/12/25 11:28:00;;;;;;;2.13;1.60;;;;;;;;;;5053964;28;20040;-78
2022/12/25 11:30:48;;;;;;;5.88;3.17;;;;;;;;;;5058573;28;20063;-79
2022/12/25 11:33:35;;;;;;;4.07;2.00;;;;;;;;;;5053310;28;20086;-80
2022/12/25 11:36:24;;;;;;;2.88;1.80;;;;;;;;;;5056981;28;20040;-78
2022/12/25 11:39:17;;;;;;;3.90;2.15;;;;;;;;;;5041997;28;20032;-78
2022/12/25 11:42:20;;;;;;;3.45;1.98;;;;;;;;;;5059799;28;20032;-78
2022/12/25 11:45:17;;;;;;;3.10;1.77;;;;;;;;;;5052832;28;20039;-78
2022/12/25 11:48:16;;;;;;;2.78;1.58;;;;;;;;;;5044537;28;20505;-79
2022/12/25 11:51:02;;;;;;;;;;;;;;;;;;5059514;28;20036;-78
2022/12/25 11:53:49;;;;;;;3.90;2.28;;;;;;;;;;5052935;28;19919;-72
2022/12/25 11:56:35;;;;;;;3.92;2.22;;;;;;;;;;5057273;28;20041;-68
2022/12/25 11:59:30;;;;;;;3.58;1.70;;;;;;;;;;5052540;28;20032;-66
2022/12/25 12:02:28;;;;;;;2.55;1.67;;;;;;;;;;5052979;28;20032;-69
2022/12/25 12:05:16;;;;;;;3.42;2.15;;;;;;;;;;5057349;28;20060;-68
2022/12/25 12:08:03;;;;;;;5.63;2.30;;;;;;;;;;5047333;28;20040;-67
2022/12/25 12:11:14;;;;;;;5.40;2.65;;;;;;;;;;5052450;28;20047;-70
2022/12/25 12:14:19;;;;;;;2.85;1.73;;;;;;;;;;5055761;28;20025;-69
2022/12/25 12:17:07;;;;;;;3.42;2.10;;;;;;;;;;5055078;28;20436;-68
2022/12/25 12:19:52;;;;;;;4.00;2.80;;;;;;;;;;5052270;28;20024;-69
2022/12/25 12:22:38;;;;;;;4.03;2.28;;;;;;;;;;5052788;28;20032;-70
2022/12/25 12:25:23;;;;;;;6.53;2.13;;;;;;;;;;5041024;28;20064;-69
2022/12/25 12:28:12;;;;;;;2.78;1.90;;;;;;;;;;5052612;28;20040;-68
2022/12/25 12:31:02;;;;;;;4.33;2.13;;;;;;;;;;5053729;28;20027;-75
2022/12/25 12:33:50;;;;;;;6.35;2.45;;;;;;;;;;5039499;28;20376;-69
2022/12/25 12:36:36;;;;;;;7.95;2.65;;;;;;;;;;5054431;28;20090;-68
2022/12/25 12:39:24;;;;;;;4.03;2.15;;;;;;;;;;5052460;28;20430;-67
2022/12/25 12:42:14;;;;;;;4.40;2.67;;;;;;;;;;5053068;28;20028;-67
2022/12/25 12:45:20;;;;;;;3.83;2.60;;;;;;;;;;5052331;28;20074;-67
2022/12/25 12:48:15;;;;;;;8.38;4.35;;;;;;;;;;5052912;28;20072;-70
2022/12/25 12:51:05;;;;;;;4.13;2.42;;;;;;;;;;5056053;28;20427;-72
2022/12/25 12:54:02;;;;;;;3.92;2.20;;;;;;;;;;5052181;28;20064;-71
2022/12/25 12:57:20;;;;;;;3.70;2.42;;;;;;;;;;5059411;28;20051;-73
2022/12/25 13:00:08;;;;;;;3.80;2.35;;;;;;;;;;5048250;28;20037;-72
2022/12/25 13:03:26;;;;;;;5.25;2.55;;;;;;;;;;5054116;28;20055;-72
2022/12/25 13:06:26;;;;;;;4.00;2.30;;;;;;;;;;5030041;28;20051;-71
2022/12/25 13:09:30;;;;;;;4.72;2.30;;;;;;;;;;5053834;28;20131;-71
2022/12/25 13:12:15;;;;;;;5.70;2.00;;;;;;;;;;5050526;28;20368;-73
2022/12/25 13:15:01;;;;;;;2.72;2.17;;;;;;;;;;5051745;28;20453;-73
2022/12/25 13:17:47;;;;;;;3.80;2.10;;;;;;;;;;5058752;28;20025;-74
2022/12/25 13:20:37;;;;;;;6.43;3.00;;;;;;;;;;5050708;28;20035;-70
2022/12/25 13:23:27;;;;;;;17.48;6.60;;;;;;;;;;5056291;28;20028;-72
2022/12/25 13:26:16;;;;;;;9.75;4.75;;;;;;;;;;5048196;28;20040;-72
2022/12/25 13:29:02;;;;;;;8.20;3.88;;;;;;;;;;5055717;28;20111;-72
2022/12/25 13:31:47;;;;;;;5.80;2.45;;;;;;;;;;5060297;28;20536;-72
2022/12/25 13:34:40;;;;;;;4.35;2.53;;;;;;;;;;5064011;28;20127;-73
2022/12/25 13:37:27;;;;;;;9.07;2.90;;;;;;;;;;5058033;28;20044;-72
2022/12/25 13:40:19;;;;;;;6.70;3.17;;;;;;;;;;5043100;28;20036;-70
2022/12/25 13:43:04;;;;;;;4.60;1.98;;;;;;;;;;5045764;28;20044;-70
2022/12/25 13:45:53;;;;;;;5.32;2.13;;;;;;;;;;5060191;28;20021;-70
2022/12/25 13:48:38;;;;;;;5.63;2.10;;;;;;;;;;5055198;28;20406;-71
2022/12/25 13:51:23;;;;;;;4.53;2.10;;;;;;;;;;5063016;28;20376;-72
2022/12/25 13:54:10;;;;;;;6.82;2.25;;;;;;;;;;5055041;28;20123;-70
2022/12/25 13:56:55;;;;;;;4.90;2.08;;;;;;;;;;5060417;28;20047;-71
2022/12/25 13:59:42;;;;;;;4.15;2.83;;;;;;;;;;5046154;28;20044;-70
2022/12/25 14:02:33;;;;;;;6.55;2.45;;;;;;;;;;5054574;28;20089;-73
2022/12/25 14:05:23;;;;;;;4.13;2.10;;;;;;;;;;5056218;28;20047;-79
2022/12/25 14:08:08;;;;;;;;;;;;;;;;;;5052193;28;20036;-80
2022/12/25 14:10:53;;;;;;;3.95;2.55;;;;;;;;;;5048922;28;19957;-79
2022/12/25 14:13:40;;;;;;;4.57;2.50;;;;;;;;;;5051397;28;20539;-77
2022/12/25 14:16:26;;;;;;;3.78;1.95;;;;;;;;;;5047645;28;20032;-78
2022/12/25 14:19:31;;;;;;;4.75;2.33;;;;;;;;;;5054852;28;20361;-73
2022/12/25 14:22:19;;;;;;;5.40;2.28;;;;;;;;;;5062440;28;20029;-73
2022/12/25 14:25:12;;;;;;;9.15;2.80;;;;;;;;;;5053806;28;20122;-71
2022/12/25 14:27:59;;;;;;;4.22;2.47;;;;;;;;;;5054062;28;20372;-73
2022/12/25 14:30:44;;;;;;;5.43;1.90;;;;;;;;;;5028655;28;20033;-70
2022/12/25 14:33:34;;;;;;;7.25;2.33;;;;;;;;;;5055233;28;20098;-72
2022/12/25 14:36:19;;;;;;;4.28;2.28;;;;;;;;;;5046910;28;20047;-72
2022/12/25 14:39:05;;;;;;;18.23;3.97;;;;;;;;;;5054280;28;20097;-66
2022/12/25 14:41:52;;;;;;;4.90;2.67;;;;;;;;;;5053809;28;20540;-71
2022/12/25 14:44:38;;;;;;;7.68;3.10;;;;;;;;;;5051813;28;20064;-73
2022/12/25 14:47:24;;;;;;;6.20;3.65;;;;;;;;;;5037912;28;20111;-70
2022/12/25 14:50:14;;;;;;;7.93;3.00;;;;;;;;;;5050702;28;20028;-70
2022/12/25 14:52:59;;;;;;;5.18;2.83;;;;;;;;;;5042337;28;20111;-71
2022/12/25 14:55:46;;;;;;;4.45;2.60;;;;;;;;;;5051459;28;20043;-70
2022/12/25 14:58:36;;;;;;;4.05;2.38;;;;;;;;;;5038984;28;20032;-73
2022/12/25 15:01:32;;;;;;;5.90;3.55;;;;;;;;;;5054894;28;20041;-76
2022/12/25 15:04:19;;;;;;;6.03;3.50;;;;;;;;;;5051557;28;20036;-75
2022/12/25 15:07:09;;;;;;;7.35;3.25;;;;;;;;;;5053536;28;20070;-77
2022/12/25 15:09:54;;;;;;;4.72;3.17;;;;;;;;;;5044995;28;20388;-74
2022/12/25 15:12:40;;;;;;;5.32;3.22;;;;;;;;;;5044883;28;20029;-75
2022/12/25 15:15:25;;;;;;;6.88;3.50;;;;;;;;;;5024085;28;20040;-81
2022/12/25 15:18:10;;;;;;;5.18;3.50;;;;;;;;;;5051430;28;20029;-75
2022/12/25 15:20:55;;;;;;;8.55;3.55;;;;;;;;;;5058538;28;20039;-76
2022/12/25 15:23:41;;;;;;;6.40;3.38;;;;;;;;;;5039849;28;20036;-75
2022/12/25 15:26:27;;;;;;;6.85;3.10;;;;;;;;;;5056997;28;20032;-76
2022/12/25 15:29:12;;;;;;;5.07;3.28;;;;;;;;;;5044259;28;20040;-75
2022/12/25 15:31:57;;;;;;;6.03;3.53;;;;;;;;;;5063702;28;20506;-76
2022/12/25 15:34:45;;;;;;;5.75;2.75;;;;;;;;;;5053305;28;20036;-72
2022/12/25 15:37:30;;;;;;;7.45;3.30;;;;;;;;;;5055121;28;20101;-74
2022/12/25 15:40:15;;;;;;;6.05;3.08;;;;;;;;;;5056522;28;20065;-75
2022/12/25 15:43:00;;;;;;;10.85;3.17;;;;;;;;;;5062862;28;20037;-77
2022/12/25 15:45:46;;;;;;;6.35;2.90;;;;;;;;;;5053046;28;20032;-76
2022/12/25 15:48:31;;;;;;;4.80;2.78;;;;;;;;;;5051946;28;20037;-75
2022/12/25 15:51:16;;;;;;;6.97;2.80;;;;;;;;;;5052652;28;20059;-68
2022/12/25 15:54:01;;;;;;;7.95;2.88;;;;;;;;;;5048925;28;20115;-80
2022/12/25 15:56:49;;;;;;;7.30;3.58;;;;;;;;;;5055910;28;20031;-81
2022/12/25 15:59:34;;;;;;;4.63;2.28;;;;;;;;;;5069847;28;20036;-81
2022/12/25 16:02:19;;;;;;;7.20;2.63;;;;;;;;;;5047134;28;20040;-82
2022/12/25 16:05:05;;;;;;;5.70;2.20;;;;;;;;;;5046576;28;20036;-80
2022/12/25 16:07:50;;;;;;;6.22;3.20;;;;;;;;;;5053840;28;20558;-80
2022/12/25 16:10:35;;;;;;;3.83;2.50;;;;;;;;;;5052455;28;20154;-71
2022/12/25 16:13:20;;;;;;;7.85;4.05;;;;;;;;;;5053957;28;20334;-71
2022/12/25 16:16:06;;;;;;;5.95;3.45;;;;;;;;;;5045429;28;20033;-72
2022/12/25 16:18:51;;;;;;;7.20;3.28;;;;;;;;;;5037234;28;20040;-71
2022/12/25 16:21:38;;;;;;;6.00;3.08;;;;;;;;;;5052108;28;20036;-71
2022/12/25 16:24:23;;;;;;;4.90;2.85;;;;;;;;;;5040546;28;20123;-73
2022/12/25 16:27:08;;;;;;;5.28;2.53;;;;;;;;;;5046343;28;20208;-70
2022/12/25 16:29:54;;;;;;;5.43;2.50;;;;;;;;;;5054281;28;20041;-72
2022/12/25 16:32:41;;;;;;;6.57;2.88;;;;;;;;;;5050642;28;20036;-71
2022/12/25 16:35:26;;;;;;;7.32;2.95;;;;;;;;;;5036208;28;20357;-70
2022/12/25 16:38:11;;;;;;;7.65;3.17;;;;;;;;;;5064421;28;20149;-72
2022/12/25 16:40:57;;;;;;;9.70;2.97;;;;;;;;;;5059398;28;20060;-71
2022/12/25 16:43:42;;;;;;;7.43;3.00;;;;;;;;;;5064264;28;20047;-71
2022/12/25 16:46:28;;;;;;;5.22;2.47;;;;;;;;;;5056493;28;20123;-67
2022/12/25 16:49:13;;;;;;;5.00;2.80;;;;;;;;;;5056280;28;20391;-72
2022/12/25 16:51:58;;;;;;;5.90;2.92;;;;;;;;;;5055305;28;20742;-72
2022/12/25 16:54:47;;;;;;;18.27;8.80;;;;;;;;;;5055669;28;20032;-72
2022/12/25 16:57:32;;;;;;;6.82;4.00;;;;;;;;;;5054718;28;20028;-72
2022/12/25 17:00:18;;;;;;;6.90;3.00;;;;;;;;;;5055701;28;20455;-75
2022/12/25 17:03:03;;;;;;;5.63;2.25;;;;;;;;;;5058155;28;20470;-72
2022/12/25 17:05:48;;;;;;;3.13;2.13;;;;;;;;;;5055595;28;20159;-70
2022/12/25 17:08:33;;;;;;;5.18;2.58;;;;;;;;;;5055329;28;20038;-80
2022/12/25 17:11:23;;;;;;;5.53;2.15;;;;;;;;;;5054395;28;20039;-79
2022/12/25 17:14:08;;;;;;;4.40;2.10;;;;;;;;;;5057608;28;20054;-80
2022/12/25 17:16:54;;;;;;;6.03;2.33;;;;;;;;;;5049790;28;20037;-81
2022/12/25 17:19:40;;;;;;;4.53;2.45;;;;;;;;;;5047010;28;20450;-80
2022/12/25 17:22:25;;;;;;;9.07;4.00;;;;;;;;;;5057914;28;20078;-79
2022/12/25 17:25:10;;;;;;;5.10;2.65;;;;;;;;;;5056287;28;20625;-68
2022/12/25 17:27:55;;;;;;;4.65;2.65;;;;;;;;;;5058532;28;20048;-67
2022/12/25 17:30:40;;;;;;;5.40;2.53;;;;;;;;;;5042055;28;20110;-66
2022/12/25 17:33:26;;;;;;;8.15;2.63;;;;;;;;;;5057107;28;20047;-69
2022/12/25 17:36:12;;;;;;;11.65;3.25;;;;;;;;;;5060483;28;20059;-69
2022/12/25 17:38:59;;;;;;;8.85;2.90;;;;;;;;;;5059579;28;20032;-66
2022/12/25 17:41:44;;;;;;;5.05;2.50;;;;;;;;;;5054598;28;20063;-70
2022/12/25 17:44:29;;;;;;;3.78;2.50;;;;;;;;;;5056027;28;20032;-67
2022/12/25 17:47:15;;;;;;;3.97;2.45;;;;;;;;;;5043480;28;20032;-68
2022/12/25 17:50:00;;;;;;;7.38;4.57;;;;;;;;;;5057499;28;20029;-67
2022/12/25 17:52:45;;;;;;;5.72;2.60;;;;;;;;;;5052538;28;20553;-68
2022/12/25 17:55:33;;;;;;;4.63;1.98;;;;;;;;;;5060571;28;20121;-67
2022/12/25 17:58:18;;;;;;;4.53;2.40;;;;;;;;;;5059841;28;20040;-69
2022/12/25 18:01:07;;;;;;;7.00;2.30;;;;;;;;;;5050976;28;20491;-80
2022/12/25 18:03:53;;;;;;;5.97;2.72;;;;;;;;;;5039935;28;20044;-72
2022/12/25 18:06:38;;;;;;;3.75;1.85;;;;;;;;;;5058745;28;20103;-72
2022/12/25 18:09:23;;;;;;;3.47;1.67;;;;;;;;;;5066222;28;20333;-73
2022/12/25 18:12:08;;;;;;;5.97;2.42;;;;;;;;;;5054565;28;20511;-71
2022/12/25 18:14:53;;;;;;;5.18;2.10;;;;;;;;;;5043866;28;20037;-73
2022/12/25 18:17:39;;;;;;;4.80;2.17;;;;;;;;;;5046658;28;20073;-73
2022/12/25 18:20:26;;;;;;;5.63;2.88;;;;;;;;;;5063618;28;20064;-69
2022/12/25 18:23:12;;;;;;;6.20;2.50;;;;;;;;;;5054654;28;20020;-70
2022/12/25 18:26:04;;;;;;;9.80;2.08;;;;;;;;;;5054387;28;20036;-72
2022/12/25 18:28:49;;;;;;;6.70;3.53;;;;;;;;;;5046788;28;20029;-70
2022/12/25 18:31:35;;;;;;;4.75;2.42;;;;;;;;;;5053278;28;20040;-72
2022/12/25 18:34:20;;;;;;;3.50;2.05;;;;;;;;;;5049308;28;20276;-72
2022/12/25 18:37:05;;;;;;;7.32;2.55;;;;;;;;;;5046384;28;20404;-67